Time;durP1;ratioP1;P1;durP2;ratioP2;P2;SDS_P1;SDS_P2;PMS_P1;PMS_P2;Temp;Humidity;BMP_temperature;BMP_pressure;BME280_temperature;BME280_humidity;BME280_pressure;Samples;Min_cycle;Max_cycle;Signal;HPM_P1;HPM_P2
2023/01/20 00:00:44;;;;;;;;;;;;;;;;;;5033458;28;2011;-40
2023/01/20 00:03:12;;;;;;;;;;;;;;;;;;5015773;28;1414;-39
2023/01/20 00:05:39;;;;;;;;;;;;;;;;;;5033506;28;1676;-39
2023/01/20 00:08:06;;;;;;;;;;;;;;;;;;5032871;28;1509;-39
2023/01/20 00:10:33;;;;;;;;;;;;;;;;;;5033549;28;1400;-38
2023/01/20 00:13:00;;;;;;;;;;;;;;;;;;5033098;28;1552;-39
2023/01/20 00:15:30;;;;;;;;;;;;;;;;;;5033094;28;1288;-40
2023/01/20 00:17:57;;;;;;;;;;;;;;;;;;5033284;28;1806;-39
2023/01/20 00:20:24;;;;;;;;;;;;;;;;;;5032933;28;1912;-37
2023/01/20 00:22:51;;;;;;;;;;;;;;;;;;5033103;28;1919;-40
2023/01/20 00:25:19;;;;;;;;;;;;;;;;;;5033036;28;2039;-40
2023/01/20 00:27:47;;;;;;;;;;;;;;;;;;5046100;28;1871;-37
2023/01/20 00:30:14;;;;;;;;;;;;;;;;;;5035050;28;2121;-39
2023/01/20 00:32:43;;;;;;;;;;;;;;;;;;5053108;28;1740;-39
2023/01/20 00:35:11;;;;;;;;;;;;;;;;;;5052573;28;1799;-39
2023/01/20 00:37:39;;;;;;;;;;;;;;;;;;5052845;28;1685;-38
2023/01/20 00:40:06;;;;;;;;;;;;;;;;;;5052906;28;1263;-39
2023/01/20 00:42:33;;;;;;;;;;;;;;;;;;5052675;28;1984;-39
2023/01/20 00:45:01;;;;;;;;;;;;;;;;;;5052727;28;1886;-41
2023/01/20 00:47:28;;;;;;;;;;;;;;;;;;5052422;28;1503;-36
2023/01/20 00:49:55;;;;;;;;;;;;;;;;;;5052277;28;1685;-38
2023/01/20 00:52:23;;;;;;;;;;;;;;;;;;5051520;28;1914;-39
2023/01/20 00:54:50;;;;;;;;;;;;;;;;;;5052364;28;2185;-39
2023/01/20 00:57:17;;;;;;;;;;;;;;;;;;5052625;28;1563;-38
2023/01/20 00:59:44;;;;;;;;;;;;;;;;;;5052333;28;1752;-40
2023/01/20 01:02:12;;;;;;;;;;;;;;;;;;5052149;28;1904;-40
2023/01/20 01:04:39;;;;;;;;;;;;;;;;;;5052167;28;1892;-40
2023/01/20 01:07:06;;;;;;;;;;;;;;;;;;5052126;28;1876;-38
2023/01/20 01:09:33;;;;;;;;;;;;;;;;;;5052279;28;1341;-38
2023/01/20 01:12:01;;;;;;;;;;;;;;;;;;5052188;28;1828;-38
2023/01/20 01:14:29;;;;;;;;;;;;;;;;;;5051312;28;1449;-38
2023/01/20 01:16:56;;;;;;;;;;;;;;;;;;5051883;28;1365;-38
2023/01/20 01:19:24;;;;;;;;;;;;;;;;;;5051989;28;1571;-36
2023/01/20 01:21:51;;;;;;;;;;;;;;;;;;5051972;28;1911;-40
2023/01/20 01:24:18;;;;;;;;;;;;;;;;;;5051747;28;1560;-37
2023/01/20 01:26:45;;;;;;;;;;;;;;;;;;5047511;28;1653;-40
2023/01/20 01:29:12;;;;;;;;;;;;;;;;;;5013994;28;2085;-38
2023/01/20 01:31:40;;;;;;;;;;;;;;;;;;5031726;28;2039;-39
2023/01/20 01:34:07;;;;;;;;;;;;;;;;;;5031721;28;1837;-40
2023/01/20 01:36:34;;;;;;;;;;;;;;;;;;5031816;28;1287;-38
2023/01/20 01:39:02;;;;;;;;;;;;;;;;;;5031648;28;2175;-40
2023/01/20 01:41:29;;;;;;;;;;;;;;;;;;5031761;28;1971;-38
2023/01/20 01:44:00;;;;;;;;;;;;;;;;;;5031379;28;1981;-38
2023/01/20 01:46:28;;;;;;;;;;;;;;;;;;5031488;28;1793;-40
2023/01/20 01:48:55;;;;;;;;;;;;;;;;;;5031823;28;1414;-41
2023/01/20 01:51:28;;;;;;;;;;;;;;;;;;5031405;28;1989;-38
2023/01/20 01:53:58;;;;;;;;;;;;;;;;;;5031402;28;1658;-38
2023/01/20 01:56:27;;;;;;;;;;;;;;;;;;5031118;28;1226;-39
2023/01/20 01:58:56;;;;;;;;;;;;;;;;;;5031704;28;1677;-38
2023/01/20 02:01:24;;;;;;;;;;;;;;;;;;5031408;28;1906;-38
2023/01/20 02:03:59;;;;;;;;;;;;;;;;;;5013543;28;2070;-40
2023/01/20 02:06:28;;;;;;;;;;;;;;;;;;5031250;28;1583;-37
2023/01/20 02:08:56;;;;;;;;;;;;;;;;;;5031079;28;1865;-39
2023/01/20 02:11:23;;;;;;;;;;;;;;;;;;5031186;28;1584;-40
2023/01/20 02:13:50;;;;;;;;;;;;;;;;;;5031099;28;1275;-39
2023/01/20 02:16:30;;;;;;;;;;;;;;;;;;5031250;28;2038;-41
2023/01/20 02:19:24;;;;;;;;;;;;;;;;;;5031127;28;1895;-39
2023/01/20 02:22:04;;;;;;;;;;;;;;;;;;5031060;28;1979;-37
2023/01/20 02:24:53;;;;;;;;;;;;;;;;;;5030882;28;1854;-40
2023/01/20 02:27:40;;;;;;;;;;;;;;;;;;5028148;28;1894;-38
2023/01/20 02:30:07;;;;;;;;;;;;;;;;;;5051099;28;1533;-39
2023/01/20 02:32:46;;;;;;;;;;;;;;;;;;5050629;28;2096;-39
2023/01/20 02:35:20;;;;;;;;;;;;;;;;;;5050820;28;1466;-39
2023/01/20 02:37:52;;;;;;;;;;;;;;;;;;5051048;28;2335;-38
2023/01/20 02:40:27;;;;;;;;;;;;;;;;;;5050823;28;1775;-41
2023/01/20 02:43:02;;;;;;;;;;;;;;;;;;5050862;28;1910;-39
2023/01/20 02:45:42;;;;;;;;;;;;;;;;;;5050641;28;1379;-39
2023/01/20 02:48:23;;;;;;;;;;;;;;;;;;5032968;28;2031;-38
2023/01/20 02:51:09;;;;;;;;;;;;;;;;;;5050795;28;2059;-38
2023/01/20 02:53:40;;;;;;;;;;;;;;;;;;5050733;28;1954;-38
2023/01/20 02:56:08;;;;;;;;;;;;;;;;;;5050337;28;2057;-39
2023/01/20 02:58:46;;;;;;;;;;;;;;;;;;5050637;28;1977;-38
2023/01/20 03:01:17;;;;;;;;;;;;;;;;;;5050418;28;2138;-38
2023/01/20 03:03:45;;;;;;;;;;;;;;;;;;5050628;28;1246;-38
2023/01/20 03:06:17;;;;;;;;;;;;;;;;;;5050491;28;1600;-39
2023/01/20 03:08:46;;;;;;;;;;;;;;;;;;5050569;28;1976;-39
2023/01/20 03:11:14;;;;;;;;;;;;;;;;;;5050591;28;1557;-39
2023/01/20 03:13:46;;;;;;;;;;;;;;;;;;5050092;28;1468;-39
2023/01/20 03:16:23;;;;;;;;;;;;;;;;;;5051183;28;1290;-39
2023/01/20 03:18:51;;;;;;;;;;;;;;;;;;5054201;28;2064;-40
2023/01/20 03:21:18;;;;;;;;;;;;;;;;;;5052916;28;1979;-39
2023/01/20 03:23:47;;;;;;;;;;;;;;;;;;5053941;28;1532;-40
2023/01/20 03:26:15;;;;;;;;;;;;;;;;;;5054125;28;1690;-39
2023/01/20 03:28:43;;;;;;;;;;;;;;;;;;5053756;28;1349;-39
2023/01/20 03:31:24;;;;;;;;;;;;;;;;;;5052934;28;2289;-38
2023/01/20 03:33:53;;;;;;;;;;;;;;;;;;5053744;28;1748;-37
2023/01/20 03:36:22;;;;;;;;;;;;;;;;;;5053873;28;1930;-41
2023/01/20 03:38:49;;;;;;;;;;;;;;;;;;5053868;28;1925;-38
2023/01/20 03:41:17;;;;;;;;;;;;;;;;;;5053902;28;2097;-37
2023/01/20 03:43:50;;;;;;;;;;;;;;;;;;5053830;28;1619;-39
2023/01/20 03:46:31;;;;;;;;;;;;;;;;;;5053849;28;1879;-39
2023/01/20 03:49:04;;;;;;;;;;;;;;;;;;5053631;28;1737;-39
2023/01/20 03:51:44;;;;;;;;;;;;;;;;;;5054008;28;1634;-38
2023/01/20 03:54:13;;;;;;;;;;;;;;;;;;5052373;28;2108;-38
2023/01/20 03:56:48;;;;;;;;;;;;;;;;;;5053641;28;1837;-39
2023/01/20 03:59:16;;;;;;;;;;;;;;;;;;5053382;28;1692;-38
2023/01/20 04:01:44;;;;;;;;;;;;;;;;;;5053346;28;2038;-39
2023/01/20 04:04:15;;;;;;;;;;;;;;;;;;5053447;28;1339;-38
2023/01/20 04:06:43;;;;;;;;;;;;;;;;;;5053513;28;1800;-38
2023/01/20 04:09:14;;;;;;;;;;;;;;;;;;5053347;28;2020;-38
2023/01/20 04:11:41;;;;;;;;;;;;;;;;;;5053310;28;1997;-40
2023/01/20 04:14:08;;;;;;;;;;;;;;;;;;5053120;28;1934;-38
2023/01/20 04:16:36;;;;;;;;;;;;;;;;;;5053494;28;1647;-38
2023/01/20 04:19:03;;;;;;;;;;;;;;;;;;5053435;28;1852;-40
2023/01/20 04:21:57;;;;;;;;;;;;;;;;;;5053008;28;1913;-37
2023/01/20 04:24:33;;;;;;;;;;;;;;;;;;5049639;28;1580;-37
2023/01/20 04:27:00;;;;;;;;;;;;;;;;;;5052137;28;2107;-38
2023/01/20 04:29:27;;;;;;;;;;;;;;;;;;5052846;28;1620;-37
2023/01/20 04:32:01;;;;;;;;;;;;;;;;;;5052540;28;1759;-37
2023/01/20 04:34:29;;;;;;;;;;;;;;;;;;5052891;28;1616;-38
2023/01/20 04:36:56;;;;;;;;;;;;;;;;;;5052542;28;2122;-38
2023/01/20 04:39:23;;;;;;;;;;;;;;;;;;5052887;28;1869;-37
2023/01/20 04:41:50;;;;;;;;;;;;;;;;;;5052777;28;1978;-38
2023/01/20 04:44:17;;;;;;;;;;;;;;;;;;5052634;28;2104;-39
2023/01/20 04:46:46;;;;;;;;;;;;;;;;;;5052808;28;2158;-38
2023/01/20 04:49:13;;;;;;;;;;;;;;;;;;5052568;28;1646;-38
2023/01/20 04:51:40;;;;;;;;;;;;;;;;;;5052306;28;2046;-38
2023/01/20 04:54:07;;;;;;;;;;;;;;;;;;5052554;28;1435;-38
2023/01/20 04:56:35;;;;;;;;;;;;;;;;;;5052614;28;2301;-41
2023/01/20 04:59:02;;;;;;;;;;;;;;;;;;5052628;28;1850;-39
2023/01/20 05:01:29;;;;;;;;;;;;;;;;;;5051932;28;2116;-40
2023/01/20 05:03:56;;;;;;;;;;;;;;;;;;5052241;28;1571;-37
2023/01/20 05:06:23;;;;;;;;;;;;;;;;;;5052346;28;2116;-37
2023/01/20 05:08:50;;;;;;;;;;;;;;;;;;5051936;28;1747;-39
2023/01/20 05:11:18;;;;;;;;;;;;;;;;;;5052456;28;1945;-38
2023/01/20 05:13:45;;;;;;;;;;;;;;;;;;5051924;28;2014;-40
2023/01/20 05:16:12;;;;;;;;;;;;;;;;;;5052183;28;2081;-38
2023/01/20 05:18:39;;;;;;;;;;;;;;;;;;5051761;28;1744;-37
2023/01/20 05:21:07;;;;;;;;;;;;;;;;;;5051743;28;1637;-38
2023/01/20 05:23:34;;;;;;;;;;;;;;;;;;5051984;28;2007;-38
2023/01/20 05:26:01;;;;;;;;;;;;;;;;;;5051847;28;1984;-38
2023/01/20 05:28:29;;;;;;;;;;;;;;;;;;5051750;28;1928;-39
2023/01/20 05:30:56;;;;;;;;;;;;;;;;;;5050355;28;10222;-38
2023/01/20 05:33:24;;;;;;;;;;;;;;;;;;5051356;28;1863;-38
2023/01/20 05:35:51;;;;;;;;;;;;;;;;;;5051543;28;1290;-37
2023/01/20 05:38:21;;;;;;;;;;;;;;;;;;5050753;28;1763;-38
2023/01/20 05:40:48;;;;;;;;;;;;;;;;;;5051103;28;1410;-37
2023/01/20 05:43:15;;;;;;;;;;;;;;;;;;5051291;28;1963;-38
2023/01/20 05:45:42;;;;;;;;;;;;;;;;;;5050894;28;1947;-38
2023/01/20 05:48:10;;;;;;;;;;;;;;;;;;5051622;28;1729;-37
2023/01/20 05:50:37;;;;;;;;;;;;;;;;;;5051330;28;1734;-42
2023/01/20 05:53:04;;;;;;;;;;;;;;;;;;5051507;28;1894;-39
2023/01/20 05:55:31;;;;;;;;;;;;;;;;;;5051459;28;2117;-38
2023/01/20 05:58:00;;;;;;;;;;;;;;;;;;5033202;28;1943;-40
2023/01/20 06:00:28;;;;;;;;;;;;;;;;;;5051166;28;2029;-38
2023/01/20 06:02:55;;;;;;;;;;;;;;;;;;5051208;28;1912;-38
2023/01/20 06:05:22;;;;;;;;;;;;;;;;;;5051285;28;1285;-38
2023/01/20 06:07:50;;;;;;;;;;;;;;;;;;5051152;28;1529;-37
2023/01/20 06:10:17;;;;;;;;;;;;;;;;;;5051145;28;2282;-38
2023/01/20 06:12:54;;;;;;;;;;;;;;;;;;5051126;28;2066;-38
2023/01/20 06:15:22;;;;;;;;;;;;;;;;;;5051036;28;2255;-38
2023/01/20 06:17:50;;;;;;;;;;;;;;;;;;5051235;28;1527;-39
2023/01/20 06:20:17;;;;;;;;;;;;;;;;;;5050874;28;1672;-38
2023/01/20 06:22:44;;;;;;;;;;;;;;;;;;5050743;28;1915;-38
2023/01/20 06:25:12;;;;;;;;;;;;;;;;;;5050823;28;1919;-38
2023/01/20 06:27:39;;;;;;;;;;;;;;;;;;5039146;28;2331;-39
2023/01/20 06:30:07;;;;;;;;;;;;;;;;;;5031160;28;2082;-38
2023/01/20 06:32:34;;;;;;;;;;;;;;;;;;5030887;28;2068;-38
2023/01/20 06:35:01;;;;;;;;;;;;;;;;;;5031078;28;1544;-38
2023/01/20 06:37:28;;;;;;;;;;;;;;;;;;5030716;28;2059;-38
2023/01/20 06:39:55;;;;;;;;;;;;;;;;;;5011840;28;2096;-40
2023/01/20 06:42:23;;;;;;;;;;;;;;;;;;5030430;28;1912;-38
2023/01/20 06:44:50;;;;;;;;;;;;;;;;;;5030474;28;1431;-39
2023/01/20 06:47:17;;;;;;;;;;;;;;;;;;5030684;28;1963;-39
2023/01/20 06:49:44;;;;;;;;;;;;;;;;;;5030896;28;1572;-38
2023/01/20 06:52:11;;;;;;;;;;;;;;;;;;5034741;28;1552;-39
2023/01/20 06:54:38;;;;;;;;;;;;;;;;;;5034673;28;1935;-38
2023/01/20 06:57:05;;;;;;;;;;;;;;;;;;5034755;28;1250;-39
2023/01/20 06:59:33;;;;;;;;;;;;;;;;;;5034535;28;1638;-39
2023/01/20 07:02:00;;;;;;;;;;;;;;;;;;5034690;28;1972;-37
2023/01/20 07:04:27;;;;;;;;;;;;;;;;;;5034511;28;2304;-39
2023/01/20 07:06:54;;;;;;;;;;;;;;;;;;5034205;28;1750;-40
2023/01/20 07:09:21;;;;;;;;;;;;;;;;;;5034356;28;2029;-38
2023/01/20 07:11:48;;;;;;;;;;;;;;;;;;5034324;28;1865;-40
2023/01/20 07:14:15;;;;;;;;;;;;;;;;;;5034504;28;1460;-39
2023/01/20 07:16:43;;;;;;;;;;;;;;;;;;5017032;28;2061;-40
2023/01/20 07:19:11;;;;;;;;;;;;;;;;;;5034369;28;1712;-40
2023/01/20 07:21:38;;;;;;;;;;;;;;;;;;5016485;28;1953;-38
2023/01/20 07:24:05;;;;;;;;;;;;;;;;;;5034225;28;1940;-38
2023/01/20 07:26:32;;;;;;;;;;;;;;;;;;5036821;28;1448;-40
2023/01/20 07:29:00;;;;;;;;;;;;;;;;;;5054336;28;1707;-38
2023/01/20 07:31:28;;;;;;;;;;;;;;;;;;5053934;28;1928;-38
2023/01/20 07:33:55;;;;;;;;;;;;;;;;;;5053614;28;1464;-37
2023/01/20 07:36:23;;;;;;;;;;;;;;;;;;5054119;28;1958;-38
2023/01/20 07:38:51;;;;;;;;;;;;;;;;;;5053995;28;2002;-40
2023/01/20 07:41:18;;;;;;;;;;;;;;;;;;5053582;28;1787;-38
2023/01/20 07:43:47;;;;;;;;;;;;;;;;;;5053953;28;2007;-40
2023/01/20 07:46:15;;;;;;;;;;;;;;;;;;5053902;28;1466;-40
2023/01/20 07:48:42;;;;;;;;;;;;;;;;;;5053779;28;1830;-39
2023/01/20 07:51:10;;;;;;;;;;;;;;;;;;5053682;28;2018;-39
2023/01/20 07:53:38;;;;;;;;;;;;;;;;;;5053560;28;1986;-38
2023/01/20 07:56:10;;;;;;;;;;;;;;;;;;5035615;28;2626;-40
2023/01/20 07:58:37;;;;;;;;;;;;;;;;;;5053536;28;2545;-40
2023/01/20 08:01:06;;;;;;;;;;;;;;;;;;5053177;28;1513;-38
2023/01/20 08:03:34;;;;;;;;;;;;;;;;;;5052572;28;1912;-38
2023/01/20 08:06:02;;;;;;;;;;;;;;;;;;5053430;28;1913;-40
2023/01/20 08:08:30;;;;;;;;;;;;;;;;;;5035387;28;1810;-40
2023/01/20 08:11:00;;;;;;;;;;;;;;;;;;5053101;28;1544;-38
2023/01/20 08:13:28;;;;;;;;;;;;;;;;;;5053167;28;1510;-42
2023/01/20 08:15:58;;;;;;;;;;;;;;;;;;5052980;28;1920;-40
2023/01/20 08:18:25;;;;;;;;;;;;;;;;;;5053130;28;1873;-37
2023/01/20 08:20:52;;;;;;;;;;;;;;;;;;5053058;28;1324;-38
2023/01/20 08:23:20;;;;;;;;;;;;;;;;;;5053237;28;1901;-40
2023/01/20 08:25:47;;;;;;;;;;;;;;;;;;5053301;28;1910;-40
2023/01/20 08:28:14;;;;;;;;;;;;;;;;;;5036158;28;2026;-40
2023/01/20 08:30:41;;;;;;;;;;;;;;;;;;5032747;28;2050;-41
2023/01/20 08:33:08;;;;;;;;;;;;;;;;;;5032432;28;2126;-38
2023/01/20 08:35:36;;;;;;;;;;;;;;;;;;5015058;28;1458;-40
2023/01/20 08:38:03;;;;;;;;;;;;;;;;;;5032927;28;1567;-38
2023/01/20 08:40:30;;;;;;;;;;;;;;;;;;5032794;28;1737;-38
2023/01/20 08:42:59;;;;;;;;;;;;;;;;;;5032808;28;1997;-42
2023/01/20 08:45:26;;;;;;;;;;;;;;;;;;5032838;28;2214;-42
2023/01/20 08:47:54;;;;;;;;;;;;;;;;;;5032522;28;1919;-39
2023/01/20 08:50:22;;;;;;;;;;;;;;;;;;5032725;28;1808;-40
2023/01/20 08:52:49;;;;;;;;;;;;;;;;;;5032851;28;1901;-40
2023/01/20 08:55:16;;;;;;;;;;;;;;;;;;5032086;28;1310;-38
2023/01/20 08:57:44;;;;;;;;;;;;;;;;;;5032771;28;1589;-40
2023/01/20 09:00:12;;;;;;;;;;;;;;;;;;5032336;28;2269;-41
2023/01/20 09:02:40;;;;;;;;;;;;;;;;;;5032227;28;2251;-40
2023/01/20 09:05:07;;;;;;;;;;;;;;;;;;5032502;28;1934;-40
2023/01/20 09:07:35;;;;;;;;;;;;;;;;;;5032761;28;1614;-36
2023/01/20 09:10:02;;;;;;;;;;;;;;;;;;5032297;28;1642;-41
2023/01/20 09:12:30;;;;;;;;;;;;;;;;;;5032239;28;1975;-40
2023/01/20 09:14:57;;;;;;;;;;;;;;;;;;5031226;28;1623;-39
2023/01/20 09:17:24;;;;;;;;;;;;;;;;;;5031904;28;1843;-38
2023/01/20 09:19:51;;;;;;;;;;;;;;;;;;5032366;28;2141;-42
2023/01/20 09:22:20;;;;;;;;;;;;;;;;;;5031890;28;1702;-39
2023/01/20 09:24:47;;;;;;;;;;;;;;;;;;5031920;28;1986;-41
2023/01/20 09:27:14;;;;;;;;;;;;;;;;;;5040376;28;1868;-41
2023/01/20 09:29:41;;;;;;;;;;;;;;;;;;5051732;28;1425;-40
2023/01/20 09:32:09;;;;;;;;;;;;;;;;;;5051611;28;2040;-39
2023/01/20 09:34:38;;;;;;;;;;;;;;;;;;5051347;28;1708;-40
2023/01/20 09:45:42;;;;;;;;;;;;;;;;;;5051393;28;2051;-40
2023/01/20 09:48:13;;;;;;;;;;;;;;;;;;5033770;28;1455;-38
2023/01/20 09:53:49;;;;;;;;;;;;;;;;;;5031228;28;2235;-39
2023/01/20 09:56:17;;;;;;;;;;;;;;;;;;5031217;28;1625;-40
2023/01/20 09:58:44;;;;;;;;;;;;;;;;;;5033589;28;1625;-38
2023/01/20 10:01:17;;;;;;;;;;;;;;;;;;5051142;28;1815;-39
2023/01/20 10:03:45;;;;;;;;;;;;;;;;;;5050776;28;1904;-37
2023/01/20 10:06:19;;;;;;;;;;;;;;;;;;5050977;28;1825;-40
2023/01/20 10:09:04;;;;;;;;;;;;;;;;;;5051104;28;1402;-38
2023/01/20 10:11:36;;;;;;;;;;;;;;;;;;5051176;28;2142;-40
2023/01/20 10:14:12;;;;;;;;;;;;;;;;;;5050976;28;1526;-38
2023/01/20 10:16:45;;;;;;;;;;;;;;;;;;5050490;28;2201;-38
2023/01/20 10:19:27;;;;;;;;;;;;;;;;;;5050898;28;2094;-38
2023/01/20 10:22:04;;;;;;;;;;;;;;;;;;5051091;28;1843;-38
2023/01/20 10:24:32;;;;;;;;;;;;;;;;;;5050896;28;2191;-40
2023/01/20 10:27:03;;;;;;;;;;;;;;;;;;5044655;28;2024;-40
2023/01/20 10:29:38;;;;;;;;;;;;;;;;;;5030958;28;1445;-42
2023/01/20 10:32:10;;;;;;;;;;;;;;;;;;5030555;28;1821;-39
2023/01/20 10:34:43;;;;;;;;;;;;;;;;;;5013296;28;2113;-42
2023/01/20 10:37:10;;;;;;;;;;;;;;;;;;5030656;28;2164;-39
2023/01/20 10:39:37;;;;;;;;;;;;;;;;;;5030860;28;1527;-41
2023/01/20 10:42:09;;;;;;;;;;;;;;;;;;5030855;28;1831;-40
2023/01/20 10:44:36;;;;;;;;;;;;;;;;;;5030623;28;1906;-44
2023/01/20 10:47:03;;;;;;;;;;;;;;;;;;5030605;28;1804;-42
2023/01/20 10:49:51;;;;;;;;;;;;;;;;;;5030314;28;1846;-40
2023/01/20 10:52:19;;;;;;;;;;;;;;;;;;5030903;28;1490;-39
2023/01/20 10:54:49;;;;;;;;;;;;;;;;;;5030835;28;2157;-38
2023/01/20 10:57:16;;;;;;;;;;;;;;;;;;5030521;28;1680;-41
2023/01/20 10:59:45;;;;;;;;;;;;;;;;;;5030972;28;2087;-42
2023/01/20 11:02:15;;;;;;;;;;;;;;;;;;5030189;28;1566;-38
2023/01/20 11:04:43;;;;;;;;;;;;;;;;;;5030524;28;1898;-40
2023/01/20 11:07:19;;;;;;;;;;;;;;;;;;5030497;28;1988;-41
2023/01/20 11:09:49;;;;;;;;;;;;;;;;;;5030400;28;1680;-40
2023/01/20 11:12:17;;;;;;;;;;;;;;;;;;5030558;28;2314;-39
2023/01/20 11:14:45;;;;;;;;;;;;;;;;;;5030402;28;1661;-38
2023/01/20 11:17:14;;;;;;;;;;;;;;;;;;5030346;28;1972;-38
2023/01/20 11:19:49;;;;;;;;;;;;;;;;;;5030398;28;1857;-39
2023/01/20 11:22:21;;;;;;;;;;;;;;;;;;5030362;28;2142;-39
2023/01/20 11:24:52;;;;;;;;;;;;;;;;;;5030462;28;2044;-38
2023/01/20 11:27:20;;;;;;;;;;;;;;;;;;5039410;28;1449;-39
2023/01/20 11:29:50;;;;;;;;;;;;;;;;;;5050226;28;1866;-39
2023/01/20 11:32:25;;;;;;;;;;;;;;;;;;5049703;28;2017;-37
2023/01/20 11:34:53;;;;;;;;;;;;;;;;;;5050200;28;2156;-39
2023/01/20 11:37:24;;;;;;;;;;;;;;;;;;5051148;28;1576;-40
2023/01/20 11:39:54;;;;;;;;;;;;;;;;;;5053747;28;2223;-39
2023/01/20 11:42:23;;;;;;;;;;;;;;;;;;5053957;28;1996;-39
2023/01/20 11:45:13;;;;;;;;;;;;;;;;;;5053630;28;2085;-39
2023/01/20 11:48:01;;;;;;;;;;;;;;;;;;5053638;28;1872;-38
2023/01/20 11:50:31;;;;;;;;;;;;;;;;;;5053852;28;1825;-38
2023/01/20 11:53:12;;;;;;;;;;;;;;;;;;5053739;28;1967;-40
2023/01/20 11:55:44;;;;;;;;;;;;;;;;;;5053377;28;1748;-38
2023/01/20 11:58:16;;;;;;;;;;;;;;;;;;5053486;28;1445;-39
2023/01/20 12:00:43;;;;;;;;;;;;;;;;;;5053481;28;2085;-39
2023/01/20 12:03:22;;;;;;;;;;;;;;;;;;5053399;28;2208;-39
2023/01/20 12:05:56;;;;;;;;;;;;;;;;;;5053359;28;1925;-39
2023/01/20 12:08:35;;;;;;;;;;;;;;;;;;5053265;28;1266;-40
2023/01/20 12:11:04;;;;;;;;;;;;;;;;;;5053288;28;1920;-39
2023/01/20 12:14:18;;;;;;;;;;;;;;;;;;5053412;28;2241;-38
2023/01/20 12:16:25;;;;;;;;;;;;;;;;;;5035277;28;2617;-38
2023/01/20 12:18:56;;;;;;;;;;;;;;;;;;5052870;28;2300;-38
2023/01/20 12:21:30;;;;;;;;;;;;;;;;;;5052932;28;2008;-40
2023/01/20 12:24:01;;;;;;;;;;;;;;;;;;5052921;28;2011;-41
2023/01/20 12:26:33;;;;;;;;;;;;;;;;;;5050797;28;1911;-40
2023/01/20 12:29:09;;;;;;;;;;;;;;;;;;5033119;28;1660;-40
2023/01/20 12:31:37;;;;;;;;;;;;;;;;;;5032855;28;2101;-38
2023/01/20 12:34:08;;;;;;;;;;;;;;;;;;5032817;28;2150;-39
2023/01/20 12:36:58;;;;;;;;;;;;;;;;;;5033164;28;1762;-40
2023/01/20 12:39:44;;;;;;;;;;;;;;;;;;5022939;28;2060;-39
2023/01/20 12:42:12;;;;;;;;;;;;;;;;;;5032760;28;1947;-40
2023/01/20 12:44:46;;;;;;;;;;;;;;;;;;5032597;28;1987;-39
2023/01/20 12:47:15;;;;;;;;;;;;;;;;;;5032542;28;1597;-40
2023/01/20 12:50:01;;;;;;;;;;;;;;;;;;5032432;28;1659;-39
2023/01/20 12:52:37;;;;;;;;;;;;;;;;;;5033026;28;2131;-39
2023/01/20 12:55:05;;;;;;;;;;;;;;;;;;5032479;28;1861;-38
2023/01/20 12:57:35;;;;;;;;;;;;;;;;;;5032638;28;1643;-40
2023/01/20 13:00:22;;;;;;;;;;;;;;;;;;5032290;28;2178;-39
2023/01/20 13:02:52;;;;;;;;;;;;;;;;;;4992472;28;1223;-40
2023/01/20 13:05:27;;;;;;;;;;;;;;;;;;5031763;28;2085;-40
2023/01/20 13:07:55;;;;;;;;;;;;;;;;;;5014267;28;1843;-38
2023/01/20 13:10:26;;;;;;;;;;;;;;;;;;5032203;28;1616;-39
2023/01/20 13:12:53;;;;;;;;;;;;;;;;;;5032182;28;1933;-39
2023/01/20 13:15:24;;;;;;;;;;;;;;;;;;5031900;28;1847;-40
2023/01/20 13:18:00;;;;;;;;;;;;;;;;;;5031812;28;1437;-39
2023/01/20 13:20:29;;;;;;;;;;;;;;;;;;5031740;28;1853;-40
2023/01/20 13:22:59;;;;;;;;;;;;;;;;;;5031415;28;1561;-40
2023/01/20 13:25:27;;;;;;;;;;;;;;;;;;5031955;28;2025;-38
2023/01/20 13:27:54;;;;;;;;;;;;;;;;;;5045385;28;1563;-39
2023/01/20 13:30:41;;;;;;;;;;;;;;;;;;5051442;28;1692;-38
2023/01/20 13:33:25;;;;;;;;;;;;;;;;;;5051284;28;1822;-41
2023/01/20 13:35:53;;;;;;;;;;;;;;;;;;5051660;28;1716;-41
2023/01/20 13:38:22;;;;;;;;;;;;;;;;;;5051706;28;2001;-39
2023/01/20 13:40:50;;;;;;;;;;;;;;;;;;5051474;28;2095;-40
2023/01/20 13:43:26;;;;;;;;;;;;;;;;;;5051407;28;2236;-39
2023/01/20 13:46:02;;;;;;;;;;;;;;;;;;5051207;28;1908;-41
2023/01/20 13:48:31;;;;;;;;;;;;;;;;;;5051376;28;2141;-40
2023/01/20 13:51:17;;;;;;;;;;;;;;;;;;5051357;28;1493;-43
2023/01/20 13:53:44;;;;;;;;;;;;;;;;;;5033189;28;1780;-40
2023/01/20 13:56:24;;;;;;;;;;;;;;;;;;5051424;28;1953;-39
2023/01/20 13:58:52;;;;;;;;;;;;;;;;;;5051040;28;1505;-40
2023/01/20 14:01:20;;;;;;;;;;;;;;;;;;5050465;28;2129;-39
2023/01/20 14:04:00;;;;;;;;;;;;;;;;;;5051189;28;1979;-40
2023/01/20 14:06:28;;;;;;;;;;;;;;;;;;5051032;28;1377;-40
2023/01/20 14:08:56;;;;;;;;;;;;;;;;;;5051276;28;1699;-38
2023/01/20 14:11:25;;;;;;;;;;;;;;;;;;5050905;28;2478;-40
2023/01/20 14:14:04;;;;;;;;;;;;;;;;;;5050950;28;1717;-35
2023/01/20 14:16:34;;;;;;;;;;;;;;;;;;5050831;28;1958;-40
2023/01/20 14:19:12;;;;;;;;;;;;;;;;;;5050751;28;1853;-39
2023/01/20 14:21:39;;;;;;;;;;;;;;;;;;5051084;28;1991;-38
2023/01/20 14:24:24;;;;;;;;;;;;;;;;;;5051054;28;1966;-39
2023/01/20 14:27:04;;;;;;;;;;;;;;;;;;5045569;28;1823;-40
2023/01/20 14:29:32;;;;;;;;;;;;;;;;;;5030947;28;2130;-40
2023/01/20 14:31:59;;;;;;;;;;;;;;;;;;5030760;28;1841;-40
2023/01/20 14:34:31;;;;;;;;;;;;;;;;;;5030725;28;1407;-39
2023/01/20 14:37:02;;;;;;;;;;;;;;;;;;5030754;28;1716;-40
2023/01/20 14:39:29;;;;;;;;;;;;;;;;;;5030740;28;1459;-40
2023/01/20 14:42:00;;;;;;;;;;;;;;;;;;5030617;28;2234;-41
2023/01/20 14:44:29;;;;;;;;;;;;;;;;;;5030840;28;2258;-39
2023/01/20 14:46:57;;;;;;;;;;;;;;;;;;5030813;28;1495;-41
2023/01/20 14:49:30;;;;;;;;;;;;;;;;;;5030582;28;1717;-41
2023/01/20 14:52:01;;;;;;;;;;;;;;;;;;5030653;28;1484;-41
2023/01/20 14:54:29;;;;;;;;;;;;;;;;;;5030793;28;1815;-40
2023/01/20 14:56:57;;;;;;;;;;;;;;;;;;5030685;28;1497;-41
2023/01/20 14:59:24;;;;;;;;;;;;;;;;;;5030527;28;1842;-40
2023/01/20 15:01:56;;;;;;;;;;;;;;;;;;5030089;28;1714;-39
2023/01/20 15:04:23;;;;;;;;;;;;;;;;;;5030452;28;2127;-40
2023/01/20 15:06:52;;;;;;;;;;;;;;;;;;5030788;28;1524;-40
2023/01/20 15:09:27;;;;;;;;;;;;;;;;;;5030562;28;2577;-40
2023/01/20 15:12:13;;;;;;;;;;;;;;;;;;5030748;28;1817;-42
2023/01/20 15:14:40;;;;;;;;;;;;;;;;;;5034219;28;1986;-41
2023/01/20 15:17:08;;;;;;;;;;;;;;;;;;5034405;28;1661;-41
2023/01/20 15:19:35;;;;;;;;;;;;;;;;;;5034127;28;1389;-40
2023/01/20 15:22:16;;;;;;;;;;;;;;;;;;5034196;28;1866;-40
2023/01/20 15:24:46;;;;;;;;;;;;;;;;;;5033990;28;1977;-39
2023/01/20 15:27:26;;;;;;;;;;;;;;;;;;5042315;28;2014;-39
2023/01/20 15:30:01;;;;;;;;;;;;;;;;;;5053626;28;1717;-41
2023/01/20 15:32:28;;;;;;;;;;;;;;;;;;5053833;28;1628;-40
2023/01/20 15:34:56;;;;;;;;;;;;;;;;;;5054215;28;1267;-40
2023/01/20 15:37:23;;;;;;;;;;;;;;;;;;5052391;28;1962;-38
2023/01/20 15:39:52;;;;;;;;;;;;;;;;;;5053903;28;1758;-41
2023/01/20 15:42:20;;;;;;;;;;;;;;;;;;5053693;28;2135;-39
2023/01/20 15:44:47;;;;;;;;;;;;;;;;;;5053647;28;1983;-41
2023/01/20 15:47:29;;;;;;;;;;;;;;;;;;5054107;28;1585;-39
2023/01/20 15:49:57;;;;;;;;;;;;;;;;;;5053514;28;1788;-38
2023/01/20 15:52:24;;;;;;;;;;;;;;;;;;5053630;28;1571;-40
2023/01/20 15:54:54;;;;;;;;;;;;;;;;;;5053539;28;2151;-40
2023/01/20 15:57:22;;;;;;;;;;;;;;;;;;5053738;28;2174;-41
2023/01/20 15:59:55;;;;;;;;;;;;;;;;;;5053305;28;1828;-41
2023/01/20 16:02:23;;;;;;;;;;;;;;;;;;5053439;28;1985;-40
2023/01/20 16:04:50;;;;;;;;;;;;;;;;;;5053419;28;1977;-40
2023/01/20 16:07:18;;;;;;;;;;;;;;;;;;5053870;28;2165;-41
2023/01/20 16:09:46;;;;;;;;;;;;;;;;;;5053461;28;1797;-40
2023/01/20 16:12:17;;;;;;;;;;;;;;;;;;5053125;28;1702;-39
2023/01/20 16:14:44;;;;;;;;;;;;;;;;;;5053071;28;1981;-40
2023/01/20 16:17:19;;;;;;;;;;;;;;;;;;5053245;28;2047;-40
2023/01/20 16:19:47;;;;;;;;;;;;;;;;;;5053314;28;2147;-41
2023/01/20 16:22:15;;;;;;;;;;;;;;;;;;5053106;28;1612;-40
2023/01/20 16:24:42;;;;;;;;;;;;;;;;;;5052637;28;2675;-41
2023/01/20 16:27:20;;;;;;;;;;;;;;;;;;5044534;28;1888;-39
2023/01/20 16:29:48;;;;;;;;;;;;;;;;;;5033050;28;1906;-42
2023/01/20 16:32:15;;;;;;;;;;;;;;;;;;5032923;28;2033;-40
2023/01/20 16:34:44;;;;;;;;;;;;;;;;;;5032907;28;1644;-40
2023/01/20 16:37:12;;;;;;;;;;;;;;;;;;5032642;28;1551;-39
2023/01/20 16:39:40;;;;;;;;;;;;;;;;;;5032667;28;1639;-40
2023/01/20 16:42:13;;;;;;;;;;;;;;;;;;5032628;28;1459;-41
2023/01/20 16:44:41;;;;;;;;;;;;;;;;;;5032448;28;1984;-39
2023/01/20 16:47:08;;;;;;;;;;;;;;;;;;5032771;28;1241;-40
2023/01/20 16:49:35;;;;;;;;;;;;;;;;;;5032469;28;1994;-41
2023/01/20 16:52:02;;;;;;;;;;;;;;;;;;5032635;28;1939;-40
2023/01/20 16:54:29;;;;;;;;;;;;;;;;;;5032232;28;1570;-41
2023/01/20 16:56:56;;;;;;;;;;;;;;;;;;5032562;28;1544;-40
2023/01/20 16:59:24;;;;;;;;;;;;;;;;;;5032135;28;1462;-41
2023/01/20 17:01:52;;;;;;;;;;;;;;;;;;5032311;28;2122;-39
2023/01/20 17:04:19;;;;;;;;;;;;;;;;;;5032598;28;1218;-41
2023/01/20 17:06:47;;;;;;;;;;;;;;;;;;5032264;28;2142;-40
2023/01/20 17:09:14;;;;;;;;;;;;;;;;;;5032139;28;1821;-40
2023/01/20 17:11:41;;;;;;;;;;;;;;;;;;5032207;28;1640;-39
2023/01/20 17:14:09;;;;;;;;;;;;;;;;;;5031992;28;1897;-41
2023/01/20 17:16:37;;;;;;;;;;;;;;;;;;5031651;28;1984;-40
2023/01/20 17:19:04;;;;;;;;;;;;;;;;;;5031542;28;1916;-42
2023/01/20 17:21:32;;;;;;;;;;;;;;;;;;5031891;28;1647;-38
2023/01/20 17:24:00;;;;;;;;;;;;;;;;;;5014186;28;2525;-41
2023/01/20 17:26:29;;;;;;;;;;;;;;;;;;5033986;28;1914;-40
2023/01/20 17:28:58;;;;;;;;;;;;;;;;;;5051888;28;1655;-41
2023/01/20 17:31:27;;;;;;;;;;;;;;;;;;5051629;28;1810;-39
2023/01/20 17:33:54;;;;;;;;;;;;;;;;;;5051818;28;2172;-39